sensor_id;sensor_type;location;lat;lon;timestamp;P1;durP1;ratioP1;P2;durP2;ratioP2
47856;SDS011;33618;49.972;8.242;2023-01-30T00:00:51;22.45;;;11.35;;
47856;SDS011;33618;49.972;8.242;2023-01-30T00:03:23;24.00;;;10.65;;
47856;SDS011;33618;49.972;8.242;2023-01-30T00:05:50;23.10;;;11.50;;
47856;SDS011;33618;49.972;8.242;2023-01-30T00:08:18;24.35;;;11.50;;
47856;SDS011;33618;49.972;8.242;2023-01-30T00:10:45;23.25;;;10.93;;
47856;SDS011;33618;49.972;8.242;2023-01-30T00:13:13;29.23;;;12.65;;
47856;SDS011;33618;49.972;8.242;2023-01-30T00:15:40;24.98;;;11.80;;
47856;SDS011;33618;49.972;8.242;2023-01-30T00:18:08;23.48;;;11.38;;
47856;SDS011;33618;49.972;8.242;2023-01-30T00:20:35;25.42;;;11.90;;
47856;SDS011;33618;49.972;8.242;2023-01-30T00:23:03;24.67;;;12.25;;
47856;SDS011;33618;49.972;8.242;2023-01-30T00:25:30;23.85;;;11.40;;
47856;SDS011;33618;49.972;8.242;2023-01-30T00:27:58;24.95;;;11.18;;
47856;SDS011;33618;49.972;8.242;2023-01-30T00:30:26;24.73;;;12.45;;
47856;SDS011;33618;49.972;8.242;2023-01-30T00:32:55;27.70;;;12.68;;
47856;SDS011;33618;49.972;8.242;2023-01-30T00:35:23;23.45;;;10.93;;
47856;SDS011;33618;49.972;8.242;2023-01-30T00:37:57;24.33;;;11.45;;
47856;SDS011;33618;49.972;8.242;2023-01-30T00:40:25;25.85;;;12.15;;
47856;SDS011;33618;49.972;8.242;2023-01-30T00:42:53;25.08;;;11.43;;
47856;SDS011;33618;49.972;8.242;2023-01-30T00:45:40;24.27;;;11.63;;
47856;SDS011;33618;49.972;8.242;2023-01-30T00:48:28;30.20;;;12.32;;
47856;SDS011;33618;49.972;8.242;2023-01-30T00:50:55;24.83;;;11.85;;
47856;SDS011;33618;49.972;8.242;2023-01-30T00:53:23;27.55;;;11.77;;
47856;SDS011;33618;49.972;8.242;2023-01-30T00:55:50;28.35;;;13.40;;
47856;SDS011;33618;49.972;8.242;2023-01-30T00:58:17;24.95;;;11.88;;
47856;SDS011;33618;49.972;8.242;2023-01-30T01:00:45;25.73;;;12.10;;
47856;SDS011;33618;49.972;8.242;2023-01-30T01:03:12;28.23;;;12.55;;
47856;SDS011;33618;49.972;8.242;2023-01-30T01:05:39;25.10;;;11.70;;
47856;SDS011;33618;49.972;8.242;2023-01-30T01:08:06;28.38;;;12.93;;
47856;SDS011;33618;49.972;8.242;2023-01-30T01:10:33;23.58;;;12.35;;
47856;SDS011;33618;49.972;8.242;2023-01-30T01:13:00;24.23;;;12.23;;
47856;SDS011;33618;49.972;8.242;2023-01-30T01:15:28;25.52;;;12.15;;
47856;SDS011;33618;49.972;8.242;2023-01-30T01:17:55;31.30;;;12.75;;
47856;SDS011;33618;49.972;8.242;2023-01-30T01:20:22;24.92;;;12.43;;
47856;SDS011;33618;49.972;8.242;2023-01-30T01:22:53;24.38;;;11.80;;
47856;SDS011;33618;49.972;8.242;2023-01-30T01:25:21;21.00;;;10.77;;
47856;SDS011;33618;49.972;8.242;2023-01-30T01:27:49;25.58;;;12.45;;
47856;SDS011;33618;49.972;8.242;2023-01-30T01:30:17;24.83;;;11.85;;
47856;SDS011;33618;49.972;8.242;2023-01-30T01:32:44;23.65;;;10.60;;
47856;SDS011;33618;49.972;8.242;2023-01-30T01:35:11;24.85;;;11.88;;
47856;SDS011;33618;49.972;8.242;2023-01-30T01:37:38;23.70;;;12.70;;
47856;SDS011;33618;49.972;8.242;2023-01-30T01:40:05;22.92;;;10.98;;
47856;SDS011;33618;49.972;8.242;2023-01-30T01:42:51;23.75;;;11.32;;
47856;SDS011;33618;49.972;8.242;2023-01-30T01:45:22;24.20;;;11.75;;
47856;SDS011;33618;49.972;8.242;2023-01-30T01:48:03;25.08;;;11.63;;
47856;SDS011;33618;49.972;8.242;2023-01-30T01:53:12;26.67;;;12.57;;
47856;SDS011;33618;49.972;8.242;2023-01-30T01:55:42;29.42;;;11.85;;
47856;SDS011;33618;49.972;8.242;2023-01-30T01:58:14;25.63;;;11.98;;
47856;SDS011;33618;49.972;8.242;2023-01-30T02:00:45;27.33;;;12.38;;
47856;SDS011;33618;49.972;8.242;2023-01-30T02:03:14;26.02;;;11.90;;
47856;SDS011;33618;49.972;8.242;2023-01-30T02:05:45;23.83;;;11.90;;
47856;SDS011;33618;49.972;8.242;2023-01-30T02:08:20;24.92;;;11.85;;
47856;SDS011;33618;49.972;8.242;2023-01-30T02:13:47;24.25;;;10.85;;
47856;SDS011;33618;49.972;8.242;2023-01-30T02:16:16;21.83;;;10.95;;
47856;SDS011;33618;49.972;8.242;2023-01-30T02:18:43;24.75;;;10.93;;
47856;SDS011;33618;49.972;8.242;2023-01-30T02:27:15;23.52;;;11.43;;
47856;SDS011;33618;49.972;8.242;2023-01-30T02:30:11;23.45;;;12.05;;
47856;SDS011;33618;49.972;8.242;2023-01-30T02:33:16;25.65;;;11.63;;
47856;SDS011;33618;49.972;8.242;2023-01-30T02:36:04;24.80;;;11.63;;
47856;SDS011;33618;49.972;8.242;2023-01-30T02:44:10;28.58;;;12.52;;
47856;SDS011;33618;49.972;8.242;2023-01-30T02:49:17;26.48;;;12.85;;
47856;SDS011;33618;49.972;8.242;2023-01-30T02:51:47;24.73;;;11.52;;
47856;SDS011;33618;49.972;8.242;2023-01-30T02:54:16;23.83;;;12.07;;
47856;SDS011;33618;49.972;8.242;2023-01-30T02:56:53;26.63;;;12.05;;
47856;SDS011;33618;49.972;8.242;2023-01-30T03:04:57;31.08;;;11.93;;
47856;SDS011;33618;49.972;8.242;2023-01-30T03:07:49;29.00;;;11.93;;
47856;SDS011;33618;49.972;8.242;2023-01-30T03:10:32;25.75;;;11.95;;
47856;SDS011;33618;49.972;8.242;2023-01-30T03:16:07;23.50;;;11.70;;
47856;SDS011;33618;49.972;8.242;2023-01-30T03:18:43;26.98;;;12.40;;
47856;SDS011;33618;49.972;8.242;2023-01-30T03:21:11;26.85;;;12.27;;
47856;SDS011;33618;49.972;8.242;2023-01-30T03:23:38;26.55;;;13.07;;
47856;SDS011;33618;49.972;8.242;2023-01-30T03:26:07;30.63;;;13.45;;
47856;SDS011;33618;49.972;8.242;2023-01-30T03:28:39;27.35;;;13.10;;
47856;SDS011;33618;49.972;8.242;2023-01-30T03:31:07;24.50;;;12.25;;
47856;SDS011;33618;49.972;8.242;2023-01-30T03:33:35;28.30;;;13.55;;
47856;SDS011;33618;49.972;8.242;2023-01-30T03:36:02;28.88;;;13.32;;
47856;SDS011;33618;49.972;8.242;2023-01-30T03:38:29;29.10;;;13.23;;
47856;SDS011;33618;49.972;8.242;2023-01-30T03:40:56;27.38;;;13.35;;
47856;SDS011;33618;49.972;8.242;2023-01-30T03:43:23;26.83;;;12.73;;
47856;SDS011;33618;49.972;8.242;2023-01-30T03:45:50;25.33;;;11.82;;
47856;SDS011;33618;49.972;8.242;2023-01-30T03:48:17;25.10;;;12.63;;
47856;SDS011;33618;49.972;8.242;2023-01-30T03:50:44;31.42;;;14.40;;
47856;SDS011;33618;49.972;8.242;2023-01-30T03:53:12;30.08;;;14.35;;
47856;SDS011;33618;49.972;8.242;2023-01-30T03:55:39;31.60;;;13.10;;
47856;SDS011;33618;49.972;8.242;2023-01-30T03:58:06;30.20;;;12.95;;
47856;SDS011;33618;49.972;8.242;2023-01-30T04:00:33;27.08;;;13.20;;
47856;SDS011;33618;49.972;8.242;2023-01-30T04:03:00;32.03;;;13.55;;
47856;SDS011;33618;49.972;8.242;2023-01-30T04:05:27;28.67;;;13.45;;
47856;SDS011;33618;49.972;8.242;2023-01-30T04:07:57;30.90;;;14.15;;
47856;SDS011;33618;49.972;8.242;2023-01-30T04:10:24;28.98;;;12.85;;
47856;SDS011;33618;49.972;8.242;2023-01-30T04:12:52;34.00;;;14.55;;
47856;SDS011;33618;49.972;8.242;2023-01-30T04:15:19;27.55;;;13.23;;
47856;SDS011;33618;49.972;8.242;2023-01-30T04:17:46;31.80;;;15.45;;
47856;SDS011;33618;49.972;8.242;2023-01-30T04:20:13;28.10;;;13.75;;
47856;SDS011;33618;49.972;8.242;2023-01-30T04:22:40;32.42;;;14.10;;
47856;SDS011;33618;49.972;8.242;2023-01-30T04:25:07;29.88;;;14.10;;
47856;SDS011;33618;49.972;8.242;2023-01-30T04:27:34;30.63;;;13.63;;
47856;SDS011;33618;49.972;8.242;2023-01-30T04:30:01;29.55;;;13.75;;
47856;SDS011;33618;49.972;8.242;2023-01-30T04:32:28;33.20;;;14.40;;
47856;SDS011;33618;49.972;8.242;2023-01-30T04:34:56;30.50;;;14.07;;
47856;SDS011;33618;49.972;8.242;2023-01-30T04:37:23;27.75;;;12.52;;
47856;SDS011;33618;49.972;8.242;2023-01-30T04:39:50;31.50;;;13.40;;
47856;SDS011;33618;49.972;8.242;2023-01-30T04:42:17;27.35;;;12.90;;
47856;SDS011;33618;49.972;8.242;2023-01-30T04:44:43;27.38;;;12.55;;
47856;SDS011;33618;49.972;8.242;2023-01-30T04:47:11;30.83;;;13.32;;
47856;SDS011;33618;49.972;8.242;2023-01-30T04:49:38;30.52;;;14.18;;
47856;SDS011;33618;49.972;8.242;2023-01-30T04:52:05;30.58;;;13.25;;
47856;SDS011;33618;49.972;8.242;2023-01-30T04:54:34;24.40;;;12.45;;
47856;SDS011;33618;49.972;8.242;2023-01-30T04:57:01;24.38;;;12.10;;
47856;SDS011;33618;49.972;8.242;2023-01-30T04:59:28;23.50;;;11.77;;
47856;SDS011;33618;49.972;8.242;2023-01-30T05:01:56;24.23;;;12.10;;
47856;SDS011;33618;49.972;8.242;2023-01-30T05:04:23;25.75;;;12.18;;
47856;SDS011;33618;49.972;8.242;2023-01-30T05:06:54;21.65;;;11.13;;
47856;SDS011;33618;49.972;8.242;2023-01-30T05:09:21;24.60;;;12.07;;
47856;SDS011;33618;49.972;8.242;2023-01-30T05:11:48;24.42;;;11.63;;
47856;SDS011;33618;49.972;8.242;2023-01-30T05:14:15;24.05;;;11.30;;
47856;SDS011;33618;49.972;8.242;2023-01-30T05:16:43;21.98;;;11.35;;
47856;SDS011;33618;49.972;8.242;2023-01-30T05:19:10;20.00;;;10.45;;
47856;SDS011;33618;49.972;8.242;2023-01-30T05:21:38;21.08;;;10.77;;
47856;SDS011;33618;49.972;8.242;2023-01-30T05:24:05;17.70;;;10.25;;
47856;SDS011;33618;49.972;8.242;2023-01-30T05:26:32;20.67;;;10.48;;
47856;SDS011;33618;49.972;8.242;2023-01-30T05:28:59;18.13;;;9.45;;
47856;SDS011;33618;49.972;8.242;2023-01-30T05:31:32;20.98;;;10.40;;
47856;SDS011;33618;49.972;8.242;2023-01-30T05:34:01;24.00;;;10.13;;
47856;SDS011;33618;49.972;8.242;2023-01-30T05:36:27;22.85;;;10.60;;
47856;SDS011;33618;49.972;8.242;2023-01-30T05:38:58;22.00;;;10.95;;
47856;SDS011;33618;49.972;8.242;2023-01-30T05:41:25;18.67;;;9.88;;
47856;SDS011;33618;49.972;8.242;2023-01-30T05:43:52;20.45;;;11.20;;
47856;SDS011;33618;49.972;8.242;2023-01-30T05:46:19;20.15;;;10.18;;
47856;SDS011;33618;49.972;8.242;2023-01-30T05:48:46;22.83;;;11.10;;
47856;SDS011;33618;49.972;8.242;2023-01-30T05:51:18;19.67;;;10.35;;
47856;SDS011;33618;49.972;8.242;2023-01-30T05:53:48;19.17;;;10.27;;
47856;SDS011;33618;49.972;8.242;2023-01-30T05:56:15;17.00;;;9.55;;
47856;SDS011;33618;49.972;8.242;2023-01-30T05:58:51;18.00;;;10.05;;
47856;SDS011;33618;49.972;8.242;2023-01-30T06:01:20;18.52;;;9.35;;
47856;SDS011;33618;49.972;8.242;2023-01-30T06:03:52;15.80;;;8.85;;
47856;SDS011;33618;49.972;8.242;2023-01-30T06:06:20;16.23;;;8.20;;
47856;SDS011;33618;49.972;8.242;2023-01-30T06:08:51;16.88;;;8.98;;
47856;SDS011;33618;49.972;8.242;2023-01-30T06:11:21;16.77;;;9.20;;
47856;SDS011;33618;49.972;8.242;2023-01-30T06:13:48;18.27;;;9.15;;
47856;SDS011;33618;49.972;8.242;2023-01-30T06:16:20;14.48;;;8.30;;
47856;SDS011;33618;49.972;8.242;2023-01-30T06:18:48;16.80;;;8.15;;
47856;SDS011;33618;49.972;8.242;2023-01-30T06:21:15;15.70;;;8.65;;
47856;SDS011;33618;49.972;8.242;2023-01-30T06:23:42;14.80;;;7.90;;
47856;SDS011;33618;49.972;8.242;2023-01-30T06:26:10;15.10;;;7.88;;
47856;SDS011;33618;49.972;8.242;2023-01-30T06:28:41;16.45;;;7.88;;
47856;SDS011;33618;49.972;8.242;2023-01-30T06:31:09;13.05;;;7.30;;
47856;SDS011;33618;49.972;8.242;2023-01-30T06:33:37;17.63;;;9.73;;
47856;SDS011;33618;49.972;8.242;2023-01-30T06:36:04;16.13;;;8.82;;
47856;SDS011;33618;49.972;8.242;2023-01-30T06:38:34;13.90;;;8.07;;
47856;SDS011;33618;49.972;8.242;2023-01-30T06:41:04;14.75;;;7.85;;
47856;SDS011;33618;49.972;8.242;2023-01-30T06:43:31;14.60;;;8.25;;
47856;SDS011;33618;49.972;8.242;2023-01-30T06:45:58;16.15;;;8.32;;
47856;SDS011;33618;49.972;8.242;2023-01-30T06:48:26;13.38;;;8.02;;
47856;SDS011;33618;49.972;8.242;2023-01-30T06:50:56;14.27;;;7.88;;
47856;SDS011;33618;49.972;8.242;2023-01-30T06:53:25;14.18;;;8.27;;
47856;SDS011;33618;49.972;8.242;2023-01-30T06:56:00;12.02;;;7.65;;
47856;SDS011;33618;49.972;8.242;2023-01-30T06:58:27;13.10;;;7.97;;
47856;SDS011;33618;49.972;8.242;2023-01-30T07:00:54;14.25;;;8.52;;
47856;SDS011;33618;49.972;8.242;2023-01-30T07:03:22;14.52;;;8.57;;
47856;SDS011;33618;49.972;8.242;2023-01-30T07:05:49;14.93;;;8.45;;
47856;SDS011;33618;49.972;8.242;2023-01-30T07:08:16;18.20;;;9.30;;
47856;SDS011;33618;49.972;8.242;2023-01-30T07:10:44;14.48;;;8.45;;
47856;SDS011;33618;49.972;8.242;2023-01-30T07:13:11;14.88;;;8.07;;
47856;SDS011;33618;49.972;8.242;2023-01-30T07:15:38;18.88;;;9.13;;
47856;SDS011;33618;49.972;8.242;2023-01-30T07:18:05;15.35;;;8.25;;
47856;SDS011;33618;49.972;8.242;2023-01-30T07:20:33;15.38;;;8.30;;
47856;SDS011;33618;49.972;8.242;2023-01-30T07:23:00;16.55;;;9.20;;
47856;SDS011;33618;49.972;8.242;2023-01-30T07:25:27;13.05;;;7.57;;
47856;SDS011;33618;49.972;8.242;2023-01-30T07:27:58;15.43;;;8.48;;
47856;SDS011;33618;49.972;8.242;2023-01-30T07:30:28;16.20;;;8.43;;
47856;SDS011;33618;49.972;8.242;2023-01-30T07:33:04;16.48;;;8.75;;
47856;SDS011;33618;49.972;8.242;2023-01-30T07:35:33;18.67;;;9.85;;
47856;SDS011;33618;49.972;8.242;2023-01-30T07:38:01;14.80;;;8.32;;
47856;SDS011;33618;49.972;8.242;2023-01-30T07:40:30;16.88;;;8.30;;
47856;SDS011;33618;49.972;8.242;2023-01-30T07:42:58;16.10;;;9.18;;
47856;SDS011;33618;49.972;8.242;2023-01-30T07:45:27;16.35;;;8.10;;
47856;SDS011;33618;49.972;8.242;2023-01-30T07:48:01;17.42;;;9.32;;
47856;SDS011;33618;49.972;8.242;2023-01-30T07:50:28;19.20;;;9.60;;
47856;SDS011;33618;49.972;8.242;2023-01-30T07:52:56;13.77;;;8.35;;
47856;SDS011;33618;49.972;8.242;2023-01-30T07:55:23;16.42;;;9.02;;
47856;SDS011;33618;49.972;8.242;2023-01-30T07:57:53;13.80;;;8.55;;
47856;SDS011;33618;49.972;8.242;2023-01-30T08:00:21;16.70;;;8.93;;
47856;SDS011;33618;49.972;8.242;2023-01-30T08:02:48;16.05;;;8.73;;
47856;SDS011;33618;49.972;8.242;2023-01-30T08:05:16;15.35;;;8.57;;
47856;SDS011;33618;49.972;8.242;2023-01-30T08:07:43;15.55;;;8.18;;
47856;SDS011;33618;49.972;8.242;2023-01-30T08:10:10;13.38;;;8.05;;
47856;SDS011;33618;49.972;8.242;2023-01-30T08:12:42;15.73;;;8.25;;
47856;SDS011;33618;49.972;8.242;2023-01-30T08:15:09;14.05;;;8.38;;
47856;SDS011;33618;49.972;8.242;2023-01-30T08:17:36;13.68;;;7.85;;
47856;SDS011;33618;49.972;8.242;2023-01-30T08:20:03;13.43;;;7.95;;
47856;SDS011;33618;49.972;8.242;2023-01-30T08:22:34;11.10;;;7.03;;
47856;SDS011;33618;49.972;8.242;2023-01-30T08:25:02;10.68;;;6.72;;
47856;SDS011;33618;49.972;8.242;2023-01-30T08:27:29;10.75;;;6.43;;
47856;SDS011;33618;49.972;8.242;2023-01-30T08:29:56;12.77;;;7.35;;
47856;SDS011;33618;49.972;8.242;2023-01-30T08:32:23;10.07;;;6.03;;
47856;SDS011;33618;49.972;8.242;2023-01-30T08:34:50;9.88;;;6.32;;
47856;SDS011;33618;49.972;8.242;2023-01-30T08:37:22;8.15;;;5.50;;
47856;SDS011;33618;49.972;8.242;2023-01-30T08:39:49;7.57;;;5.65;;
47856;SDS011;33618;49.972;8.242;2023-01-30T08:42:16;9.95;;;4.93;;
47856;SDS011;33618;49.972;8.242;2023-01-30T09:09:47;5.28;;;4.10;;
47856;SDS011;33618;49.972;8.242;2023-01-30T09:12:15;6.63;;;4.15;;
47856;SDS011;33618;49.972;8.242;2023-01-30T09:14:42;4.80;;;3.85;;
47856;SDS011;33618;49.972;8.242;2023-01-30T09:17:08;4.03;;;3.20;;
47856;SDS011;33618;49.972;8.242;2023-01-30T09:19:35;3.05;;;2.55;;
47856;SDS011;33618;49.972;8.242;2023-01-30T09:22:02;2.83;;;2.53;;
47856;SDS011;33618;49.972;8.242;2023-01-30T09:24:29;2.55;;;2.35;;
47856;SDS011;33618;49.972;8.242;2023-01-30T09:26:56;3.33;;;2.67;;
47856;SDS011;33618;49.972;8.242;2023-01-30T09:29:24;2.30;;;2.05;;
47856;SDS011;33618;49.972;8.242;2023-01-30T09:31:52;2.47;;;2.28;;
47856;SDS011;33618;49.972;8.242;2023-01-30T09:34:25;2.30;;;2.00;;
47856;SDS011;33618;49.972;8.242;2023-01-30T09:36:57;3.38;;;2.30;;
47856;SDS011;33618;49.972;8.242;2023-01-30T09:47:08;2.00;;;1.90;;
47856;SDS011;33618;49.972;8.242;2023-01-30T09:52:32;1.88;;;1.77;;
47856;SDS011;33618;49.972;8.242;2023-01-30T09:55:26;3.13;;;1.97;;
47856;SDS011;33618;49.972;8.242;2023-01-30T09:57:56;1.83;;;1.60;;
47856;SDS011;33618;49.972;8.242;2023-01-30T10:00:29;2.22;;;1.83;;
47856;SDS011;33618;49.972;8.242;2023-01-30T10:05:57;1.55;;;1.45;;
47856;SDS011;33618;49.972;8.242;2023-01-30T10:09:14;2.15;;;1.83;;
47856;SDS011;33618;49.972;8.242;2023-01-30T10:33:05;1.58;;;1.48;;
47856;SDS011;33618;49.972;8.242;2023-01-30T10:35:41;2.17;;;1.40;;
47856;SDS011;33618;49.972;8.242;2023-01-30T10:38:19;1.70;;;1.60;;
47856;SDS011;33618;49.972;8.242;2023-01-30T10:41:05;1.60;;;1.50;;
47856;SDS011;33618;49.972;8.242;2023-01-30T10:52:19;2.33;;;1.85;;
47856;SDS011;33618;49.972;8.242;2023-01-30T10:55:25;2.03;;;1.80;;
47856;SDS011;33618;49.972;8.242;2023-01-30T11:06:09;1.98;;;1.73;;
47856;SDS011;33618;49.972;8.242;2023-01-30T11:08:42;2.35;;;1.30;;
47856;SDS011;33618;49.972;8.242;2023-01-30T11:14:12;1.58;;;1.48;;
47856;SDS011;33618;49.972;8.242;2023-01-30T11:16:47;1.20;;;1.10;;
47856;SDS011;33618;49.972;8.242;2023-01-30T11:19:24;1.08;;;1.00;;
47856;SDS011;33618;49.972;8.242;2023-01-30T11:22:04;1.95;;;1.17;;
47856;SDS011;33618;49.972;8.242;2023-01-30T11:24:37;1.23;;;1.13;;
47856;SDS011;33618;49.972;8.242;2023-01-30T11:27:17;1.40;;;1.30;;
47856;SDS011;33618;49.972;8.242;2023-01-30T11:33:14;2.78;;;1.30;;
47856;SDS011;33618;49.972;8.242;2023-01-30T11:35:51;2.53;;;1.17;;
47856;SDS011;33618;49.972;8.242;2023-01-30T11:38:26;0.95;;;0.95;;
47856;SDS011;33618;49.972;8.242;2023-01-30T11:41:31;1.20;;;1.15;;
47856;SDS011;33618;49.972;8.242;2023-01-30T11:43:50;0.90;;;0.90;;
47856;SDS011;33618;49.972;8.242;2023-01-30T11:46:34;1.23;;;1.00;;
47856;SDS011;33618;49.972;8.242;2023-01-30T11:49:10;2.70;;;1.10;;
47856;SDS011;33618;49.972;8.242;2023-01-30T11:52:04;0.80;;;0.80;;
47856;SDS011;33618;49.972;8.242;2023-01-30T11:54:36;1.83;;;0.90;;
47856;SDS011;33618;49.972;8.242;2023-01-30T11:57:10;1.20;;;1.10;;
47856;SDS011;33618;49.972;8.242;2023-01-30T12:02:23;1.38;;;1.13;;
47856;SDS011;33618;49.972;8.242;2023-01-30T12:04:55;0.90;;;0.90;;
47856;SDS011;33618;49.972;8.242;2023-01-30T12:07:27;0.90;;;0.90;;
47856;SDS011;33618;49.972;8.242;2023-01-30T12:09:56;1.55;;;1.10;;
47856;SDS011;33618;49.972;8.242;2023-01-30T12:18:04;1.10;;;1.10;;
47856;SDS011;33618;49.972;8.242;2023-01-30T12:23:45;1.10;;;1.00;;
47856;SDS011;33618;49.972;8.242;2023-01-30T12:26:23;1.25;;;1.15;;
47856;SDS011;33618;49.972;8.242;2023-01-30T12:29:03;1.23;;;1.13;;
47856;SDS011;33618;49.972;8.242;2023-01-30T12:31:48;2.08;;;1.20;;
47856;SDS011;33618;49.972;8.242;2023-01-30T12:34:20;1.30;;;1.20;;
47856;SDS011;33618;49.972;8.242;2023-01-30T12:45:25;2.67;;;1.10;;
47856;SDS011;33618;49.972;8.242;2023-01-30T12:59:42;1.30;;;1.20;;
47856;SDS011;33618;49.972;8.242;2023-01-30T13:13:22;1.65;;;1.50;;
47856;SDS011;33618;49.972;8.242;2023-01-30T13:23:56;1.65;;;1.30;;
47856;SDS011;33618;49.972;8.242;2023-01-30T13:26:44;1.48;;;1.33;;
47856;SDS011;33618;49.972;8.242;2023-01-30T13:29:13;3.83;;;1.20;;
47856;SDS011;33618;49.972;8.242;2023-01-30T13:31:58;1.02;;;1.00;;
47856;SDS011;33618;49.972;8.242;2023-01-30T13:34:35;3.45;;;1.38;;
47856;SDS011;33618;49.972;8.242;2023-01-30T13:37:07;1.52;;;1.10;;
47856;SDS011;33618;49.972;8.242;2023-01-30T13:42:51;3.28;;;1.70;;
47856;SDS011;33618;49.972;8.242;2023-01-30T13:44:58;1.40;;;1.30;;
47856;SDS011;33618;49.972;8.242;2023-01-30T13:47:33;1.50;;;1.40;;
47856;SDS011;33618;49.972;8.242;2023-01-30T13:50:29;2.90;;;1.80;;
47856;SDS011;33618;49.972;8.242;2023-01-30T13:53:17;2.65;;;1.50;;
47856;SDS011;33618;49.972;8.242;2023-01-30T13:56:00;3.08;;;1.40;;
47856;SDS011;33618;49.972;8.242;2023-01-30T14:15:05;10.05;;;2.00;;
47856;SDS011;33618;49.972;8.242;2023-01-30T14:20:31;2.83;;;1.63;;
47856;SDS011;33618;49.972;8.242;2023-01-30T14:23:22;6.28;;;2.10;;
47856;SDS011;33618;49.972;8.242;2023-01-30T14:25:55;4.20;;;1.50;;
47856;SDS011;33618;49.972;8.242;2023-01-30T14:30:50;6.63;;;1.80;;
47856;SDS011;33618;49.972;8.242;2023-01-30T14:38:31;5.30;;;2.28;;
47856;SDS011;33618;49.972;8.242;2023-01-30T14:43:48;4.70;;;1.65;;
47856;SDS011;33618;49.972;8.242;2023-01-30T14:54:05;4.35;;;1.70;;
47856;SDS011;33618;49.972;8.242;2023-01-30T14:56:45;2.72;;;1.60;;
47856;SDS011;33618;49.972;8.242;2023-01-30T14:59:20;3.33;;;1.63;;
47856;SDS011;33618;49.972;8.242;2023-01-30T15:02:06;6.13;;;1.70;;
47856;SDS011;33618;49.972;8.242;2023-01-30T15:04:45;4.63;;;1.83;;
47856;SDS011;33618;49.972;8.242;2023-01-30T15:10:20;5.03;;;1.60;;
47856;SDS011;33618;49.972;8.242;2023-01-30T15:13:10;3.17;;;1.70;;
47856;SDS011;33618;49.972;8.242;2023-01-30T15:32:27;6.60;;;1.80;;
47856;SDS011;33618;49.972;8.242;2023-01-30T15:35:09;8.85;;;2.55;;
47856;SDS011;33618;49.972;8.242;2023-01-30T15:42:52;10.23;;;2.38;;
47856;SDS011;33618;49.972;8.242;2023-01-30T16:05:51;5.53;;;2.53;;
47856;SDS011;33618;49.972;8.242;2023-01-30T16:08:26;9.48;;;2.40;;
47856;SDS011;33618;49.972;8.242;2023-01-30T16:10:55;10.07;;;2.45;;
47856;SDS011;33618;49.972;8.242;2023-01-30T16:13:23;7.15;;;2.30;;
47856;SDS011;33618;49.972;8.242;2023-01-30T16:15:57;6.82;;;2.10;;
47856;SDS011;33618;49.972;8.242;2023-01-30T16:20:57;6.80;;;2.03;;
47856;SDS011;33618;49.972;8.242;2023-01-30T16:23:39;7.03;;;1.88;;
47856;SDS011;33618;49.972;8.242;2023-01-30T16:26:12;7.53;;;2.20;;
47856;SDS011;33618;49.972;8.242;2023-01-30T16:28:47;7.32;;;1.90;;
47856;SDS011;33618;49.972;8.242;2023-01-30T16:31:16;9.10;;;2.20;;
47856;SDS011;33618;49.972;8.242;2023-01-30T16:33:50;5.30;;;1.85;;
47856;SDS011;33618;49.972;8.242;2023-01-30T16:38:48;10.45;;;2.00;;
47856;SDS011;33618;49.972;8.242;2023-01-30T16:41:36;5.97;;;2.03;;
47856;SDS011;33618;49.972;8.242;2023-01-30T16:49:12;4.38;;;2.60;;
47856;SDS011;33618;49.972;8.242;2023-01-30T16:51:44;7.28;;;2.40;;
47856;SDS011;33618;49.972;8.242;2023-01-30T16:54:15;9.10;;;2.30;;
47856;SDS011;33618;49.972;8.242;2023-01-30T16:56:51;9.45;;;2.30;;
47856;SDS011;33618;49.972;8.242;2023-01-30T16:59:31;6.43;;;1.50;;
47856;SDS011;33618;49.972;8.242;2023-01-30T17:02:00;10.60;;;2.05;;
47856;SDS011;33618;49.972;8.242;2023-01-30T17:04:32;9.93;;;1.83;;
47856;SDS011;33618;49.972;8.242;2023-01-30T17:07:02;7.38;;;2.20;;
47856;SDS011;33618;49.972;8.242;2023-01-30T17:09:34;10.32;;;1.90;;
47856;SDS011;33618;49.972;8.242;2023-01-30T17:17:35;6.13;;;2.15;;
47856;SDS011;33618;49.972;8.242;2023-01-30T17:20:02;7.57;;;1.65;;
47856;SDS011;33618;49.972;8.242;2023-01-30T17:22:29;5.72;;;1.90;;
47856;SDS011;33618;49.972;8.242;2023-01-30T17:24:58;8.55;;;2.33;;
47856;SDS011;33618;49.972;8.242;2023-01-30T17:27:28;6.43;;;2.08;;
47856;SDS011;33618;49.972;8.242;2023-01-30T17:29:56;7.22;;;2.38;;
47856;SDS011;33618;49.972;8.242;2023-01-30T17:32:23;10.13;;;2.30;;
47856;SDS011;33618;49.972;8.242;2023-01-30T17:34:50;8.50;;;2.30;;
47856;SDS011;33618;49.972;8.242;2023-01-30T17:37:18;10.65;;;2.17;;
47856;SDS011;33618;49.972;8.242;2023-01-30T17:39:47;7.03;;;2.10;;
47856;SDS011;33618;49.972;8.242;2023-01-30T17:42:15;12.18;;;2.22;;
47856;SDS011;33618;49.972;8.242;2023-01-30T17:44:47;8.70;;;2.42;;
47856;SDS011;33618;49.972;8.242;2023-01-30T17:47:14;5.50;;;1.42;;
47856;SDS011;33618;49.972;8.242;2023-01-30T17:49:42;6.03;;;1.73;;
47856;SDS011;33618;49.972;8.242;2023-01-30T17:52:10;6.93;;;2.30;;
47856;SDS011;33618;49.972;8.242;2023-01-30T17:54:39;7.10;;;2.17;;
47856;SDS011;33618;49.972;8.242;2023-01-30T17:57:06;8.80;;;3.35;;
47856;SDS011;33618;49.972;8.242;2023-01-30T17:59:35;6.05;;;1.98;;
47856;SDS011;33618;49.972;8.242;2023-01-30T18:02:02;6.03;;;2.00;;
47856;SDS011;33618;49.972;8.242;2023-01-30T18:04:30;10.27;;;2.38;;
47856;SDS011;33618;49.972;8.242;2023-01-30T18:06:58;8.45;;;3.03;;
47856;SDS011;33618;49.972;8.242;2023-01-30T18:09:29;10.05;;;2.30;;
47856;SDS011;33618;49.972;8.242;2023-01-30T18:11:57;7.10;;;2.00;;
47856;SDS011;33618;49.972;8.242;2023-01-30T18:14:24;7.22;;;1.83;;
47856;SDS011;33618;49.972;8.242;2023-01-30T18:16:51;8.60;;;2.05;;
47856;SDS011;33618;49.972;8.242;2023-01-30T18:19:25;5.75;;;2.03;;
47856;SDS011;33618;49.972;8.242;2023-01-30T18:21:54;10.48;;;2.35;;
47856;SDS011;33618;49.972;8.242;2023-01-30T18:24:23;5.68;;;2.15;;
47856;SDS011;33618;49.972;8.242;2023-01-30T18:26:50;8.40;;;1.92;;
47856;SDS011;33618;49.972;8.242;2023-01-30T18:29:18;7.22;;;1.95;;
47856;SDS011;33618;49.972;8.242;2023-01-30T18:31:45;3.85;;;1.55;;
47856;SDS011;33618;49.972;8.242;2023-01-30T18:34:13;5.65;;;2.47;;
47856;SDS011;33618;49.972;8.242;2023-01-30T18:36:40;10.65;;;2.28;;
47856;SDS011;33618;49.972;8.242;2023-01-30T18:39:07;7.07;;;2.20;;
47856;SDS011;33618;49.972;8.242;2023-01-30T18:41:34;9.25;;;2.35;;
47856;SDS011;33618;49.972;8.242;2023-01-30T18:44:02;11.00;;;2.33;;
47856;SDS011;33618;49.972;8.242;2023-01-30T18:46:30;8.13;;;1.67;;
47856;SDS011;33618;49.972;8.242;2023-01-30T18:48:58;12.40;;;2.20;;
47856;SDS011;33618;49.972;8.242;2023-01-30T18:51:29;12.63;;;2.40;;
47856;SDS011;33618;49.972;8.242;2023-01-30T18:53:59;10.77;;;2.00;;
47856;SDS011;33618;49.972;8.242;2023-01-30T18:56:27;6.80;;;2.03;;
47856;SDS011;33618;49.972;8.242;2023-01-30T18:58:57;4.22;;;1.58;;
47856;SDS011;33618;49.972;8.242;2023-01-30T19:01:28;9.07;;;1.80;;
47856;SDS011;33618;49.972;8.242;2023-01-30T19:03:58;6.80;;;2.00;;
47856;SDS011;33618;49.972;8.242;2023-01-30T19:06:27;7.68;;;1.83;;
47856;SDS011;33618;49.972;8.242;2023-01-30T19:08:55;9.13;;;2.08;;
47856;SDS011;33618;49.972;8.242;2023-01-30T19:11:24;9.45;;;1.92;;
47856;SDS011;33618;49.972;8.242;2023-01-30T19:14:10;8.57;;;2.08;;
47856;SDS011;33618;49.972;8.242;2023-01-30T19:16:37;9.55;;;1.92;;
47856;SDS011;33618;49.972;8.242;2023-01-30T19:19:05;8.65;;;1.98;;
47856;SDS011;33618;49.972;8.242;2023-01-30T19:21:33;8.15;;;1.77;;